BEL3FJ EBBR-LEBL
Flight info
| Callsign | BEL3FJ |
|---|---|
| Flight time | 1h 33m |
| Altitude | 37000 |
| Route | CIV N872 MEDIL DCT ODEBU UL612 OGULO DCT NARAK DCT PUMAL |
| Aircraft | A320/M-DE3FGHIJ1LORVWY/H |
Departure
| Time | 2026-05-06 07:39 |
|---|---|
| Airport | Brussels Airport (EBBR) |
Arrival
| Time | 2026-05-06 09:13 |
|---|---|
| Airport | Josep Tarradellas Barcelona-El Prat Airport (LEBL) |
| Time | Latitude | Longitude | Altitude | Speed | Heading |
|---|---|---|---|---|---|
| 2026-05-06 07:09 | 50.90404 | 4.48597 | 121 ft | 0 kts | 155° |
| 2026-05-06 07:30 | 50.90406 | 4.48596 | 121 ft | 1 kts | 155° |
| 2026-05-06 07:30 | 50.90422 | 4.48584 | 116 ft | 3 kts | 154° |
| 2026-05-06 07:30 | 50.90440 | 4.48570 | 117 ft | 3 kts | 152° |
| 2026-05-06 07:31 | 50.90457 | 4.48554 | 118 ft | 3 kts | 145° |
| 2026-05-06 07:31 | 50.90473 | 4.48535 | 118 ft | 3 kts | 128° |
| 2026-05-06 07:31 | 50.90481 | 4.48512 | 117 ft | 2 kts | 81° |
| 2026-05-06 07:31 | 50.90480 | 4.48503 | 117 ft | 0 kts | 65° |
| 2026-05-06 07:34 | 50.90483 | 4.48516 | 118 ft | 7 kts | 65° |
| 2026-05-06 07:34 | 50.90516 | 4.48629 | 120 ft | 12 kts | 65° |
| 2026-05-06 07:35 | 50.90551 | 4.48752 | 120 ft | 14 kts | 65° |
| 2026-05-06 07:35 | 50.90599 | 4.48915 | 119 ft | 17 kts | 65° |
| 2026-05-06 07:35 | 50.90650 | 4.49088 | 120 ft | 17 kts | 65° |
| 2026-05-06 07:35 | 50.90697 | 4.49254 | 121 ft | 16 kts | 66° |
| 2026-05-06 07:36 | 50.90738 | 4.49398 | 122 ft | 13 kts | 65° |
| 2026-05-06 07:36 | 50.90767 | 4.49498 | 123 ft | 7 kts | 67° |
| 2026-05-06 07:36 | 50.90791 | 4.49585 | 121 ft | 13 kts | 65° |
| 2026-05-06 07:36 | 50.90837 | 4.49733 | 123 ft | 14 kts | 54° |
| 2026-05-06 07:37 | 50.90914 | 4.49783 | 122 ft | 10 kts | 23° |
| 2026-05-06 07:37 | 50.90973 | 4.49851 | 122 ft | 11 kts | 38° |
| 2026-05-06 07:37 | 50.91057 | 4.49925 | 118 ft | 15 kts | 21° |
| 2026-05-06 07:37 | 50.91134 | 4.49907 | 117 ft | 10 kts | 298° |
| 2026-05-06 07:38 | 50.91127 | 4.49847 | 118 ft | 0 kts | 245° |
| 2026-05-06 07:38 | 50.91093 | 4.49729 | 118 ft | 43 kts | 245° |
| 2026-05-06 07:38 | 50.90881 | 4.48992 | 121 ft | 104 kts | 245° |
| 2026-05-06 07:38 | 50.90506 | 4.47693 | 121 ft | 153 kts | 245° |
| 2026-05-06 07:39 | 50.90033 | 4.46024 | 430 ft | 166 kts | 250° |
| 2026-05-06 07:39 | 50.89765 | 4.44288 | 1057 ft | 164 kts | 282° |
| 2026-05-06 07:39 | 50.90079 | 4.42567 | 1650 ft | 165 kts | 290° |
| 2026-05-06 07:39 | 50.90159 | 4.40733 | 2259 ft | 170 kts | 268° |
| 2026-05-06 07:40 | 50.90078 | 4.38824 | 2724 ft | 175 kts | 272° |
| 2026-05-06 07:40 | 50.90111 | 4.36898 | 3231 ft | 175 kts | 283° |
| 2026-05-06 07:40 | 50.90321 | 4.34934 | 3552 ft | 191 kts | 285° |
| 2026-05-06 07:40 | 50.90548 | 4.32749 | 3800 ft | 213 kts | 275° |
| 2026-05-06 07:41 | 50.90221 | 4.30316 | 4002 ft | 244 kts | 239° |
| 2026-05-06 07:41 | 50.89082 | 4.28149 | 4359 ft | 268 kts | 226° |
| 2026-05-06 07:41 | 50.87691 | 4.26087 | 5005 ft | 278 kts | 222° |
| 2026-05-06 07:41 | 50.86220 | 4.24067 | 5830 ft | 282 kts | 221° |
| 2026-05-06 07:42 | 50.84722 | 4.22038 | 6634 ft | 285 kts | 221° |
| 2026-05-06 07:42 | 50.83215 | 4.19976 | 7440 ft | 288 kts | 222° |
| 2026-05-06 07:42 | 50.81699 | 4.17869 | 8270 ft | 291 kts | 222° |
| 2026-05-06 07:42 | 50.80180 | 4.15729 | 9167 ft | 294 kts | 223° |
| 2026-05-06 07:43 | 50.78651 | 4.13552 | 9998 ft | 297 kts | 223° |
| 2026-05-06 07:43 | 50.77077 | 4.11298 | 10364 ft | 317 kts | 223° |
| 2026-05-06 07:43 | 50.75390 | 4.08875 | 10537 ft | 339 kts | 223° |
| 2026-05-06 07:43 | 50.73608 | 4.06321 | 11013 ft | 350 kts | 223° |
| 2026-05-06 07:44 | 50.71791 | 4.03727 | 11695 ft | 354 kts | 223° |
| 2026-05-06 07:44 | 50.69960 | 4.01120 | 12396 ft | 357 kts | 222° |
| 2026-05-06 07:44 | 50.68098 | 3.98473 | 13088 ft | 362 kts | 223° |
| 2026-05-06 07:44 | 50.66220 | 3.95802 | 13761 ft | 366 kts | 223° |
| 2026-05-06 07:45 | 50.64323 | 3.93107 | 14394 ft | 368 kts | 222° |
| 2026-05-06 07:45 | 50.62416 | 3.90404 | 15042 ft | 370 kts | 223° |
| 2026-05-06 07:45 | 50.60499 | 3.87684 | 15663 ft | 372 kts | 223° |
| 2026-05-06 07:45 | 50.58560 | 3.84969 | 16311 ft | 374 kts | 220° |
| 2026-05-06 07:46 | 50.56405 | 3.82681 | 16964 ft | 375 kts | 209° |
| 2026-05-06 07:46 | 50.54024 | 3.80956 | 17586 ft | 377 kts | 204° |
| 2026-05-06 07:46 | 50.51607 | 3.79318 | 18195 ft | 380 kts | 204° |
| 2026-05-06 07:46 | 50.49173 | 3.77665 | 18704 ft | 383 kts | 204° |
| 2026-05-06 07:47 | 50.46723 | 3.76001 | 19212 ft | 386 kts | 204° |
| 2026-05-06 07:47 | 50.44249 | 3.74320 | 19709 ft | 389 kts | 204° |
| 2026-05-06 07:47 | 50.41757 | 3.72620 | 20210 ft | 392 kts | 204° |
| 2026-05-06 07:47 | 50.39248 | 3.70907 | 20722 ft | 395 kts | 204° |
| 2026-05-06 07:48 | 50.36714 | 3.69185 | 21236 ft | 398 kts | 203° |
| 2026-05-06 07:48 | 50.34152 | 3.67464 | 21687 ft | 403 kts | 202° |
| 2026-05-06 07:48 | 50.31525 | 3.65870 | 22129 ft | 407 kts | 199° |
| 2026-05-06 07:48 | 50.28842 | 3.64408 | 22599 ft | 410 kts | 198° |
| 2026-05-06 07:49 | 50.26125 | 3.63021 | 23049 ft | 413 kts | 197° |
| 2026-05-06 07:49 | 50.23374 | 3.61649 | 23464 ft | 417 kts | 197° |
| 2026-05-06 07:49 | 50.20610 | 3.60260 | 23840 ft | 419 kts | 197° |
| 2026-05-06 07:49 | 50.17834 | 3.58838 | 24238 ft | 420 kts | 197° |
| 2026-05-06 07:50 | 50.15054 | 3.57386 | 24609 ft | 423 kts | 197° |
| 2026-05-06 07:50 | 50.12259 | 3.55908 | 24945 ft | 426 kts | 198° |
| 2026-05-06 07:50 | 50.09447 | 3.54415 | 25270 ft | 428 kts | 198° |
| 2026-05-06 07:50 | 50.06622 | 3.52917 | 25645 ft | 430 kts | 197° |
| 2026-05-06 07:51 | 50.03784 | 3.51420 | 26000 ft | 432 kts | 197° |
| 2026-05-06 07:51 | 50.00928 | 3.49920 | 26358 ft | 434 kts | 197° |
| 2026-05-06 07:51 | 49.98065 | 3.48418 | 26721 ft | 435 kts | 197° |
| 2026-05-06 07:51 | 49.95195 | 3.46916 | 27061 ft | 437 kts | 197° |
| 2026-05-06 07:52 | 49.92307 | 3.45410 | 27376 ft | 439 kts | 197° |
| 2026-05-06 07:52 | 49.89408 | 3.43898 | 27712 ft | 440 kts | 197° |
| 2026-05-06 07:52 | 49.86497 | 3.42385 | 28019 ft | 442 kts | 197° |
| 2026-05-06 07:52 | 49.83573 | 3.40868 | 28337 ft | 444 kts | 197° |
| 2026-05-06 07:53 | 49.80638 | 3.39343 | 28691 ft | 446 kts | 197° |
| 2026-05-06 07:53 | 49.77691 | 3.37810 | 29065 ft | 448 kts | 197° |
| 2026-05-06 07:53 | 49.74730 | 3.36272 | 29393 ft | 450 kts | 196° |
| 2026-05-06 07:53 | 49.71756 | 3.34731 | 29678 ft | 451 kts | 196° |
| 2026-05-06 07:54 | 49.68774 | 3.33189 | 29936 ft | 453 kts | 196° |
| 2026-05-06 07:54 | 49.65777 | 3.31644 | 30140 ft | 455 kts | 196° |
| 2026-05-06 07:54 | 49.62775 | 3.30098 | 30347 ft | 456 kts | 196° |
| 2026-05-06 07:54 | 49.59762 | 3.28544 | 30551 ft | 457 kts | 196° |
| 2026-05-06 07:55 | 49.56756 | 3.26995 | 30830 ft | 455 kts | 197° |
| 2026-05-06 07:55 | 49.53752 | 3.25450 | 31123 ft | 454 kts | 197° |
| 2026-05-06 07:55 | 49.50760 | 3.23917 | 31416 ft | 453 kts | 197° |
| 2026-05-06 07:55 | 49.47778 | 3.22393 | 31715 ft | 451 kts | 197° |
| 2026-05-06 07:56 | 49.44806 | 3.20879 | 32008 ft | 450 kts | 196° |
| 2026-05-06 07:56 | 49.41838 | 3.19365 | 32315 ft | 448 kts | 197° |
| 2026-05-06 07:56 | 49.38884 | 3.17856 | 32614 ft | 447 kts | 197° |
| 2026-05-06 07:56 | 49.36934 | 3.16861 | 32829 ft | 445 kts | 197° |
| 2026-05-06 07:57 | 49.33018 | 3.14861 | 33282 ft | 442 kts | 197° |
| 2026-05-06 07:57 | 49.31086 | 3.13876 | 33495 ft | 441 kts | 198° |
| 2026-05-06 07:57 | 49.28183 | 3.12398 | 33799 ft | 439 kts | 198° |
| 2026-05-06 07:57 | 49.25290 | 3.10928 | 34085 ft | 437 kts | 198° |
| 2026-05-06 07:58 | 49.22408 | 3.09468 | 34303 ft | 437 kts | 198° |
| 2026-05-06 07:58 | 49.19519 | 3.08006 | 34430 ft | 439 kts | 198° |
| 2026-05-06 07:58 | 49.16618 | 3.06541 | 34615 ft | 439 kts | 198° |
| 2026-05-06 07:58 | 49.13718 | 3.05078 | 34827 ft | 438 kts | 198° |
| 2026-05-06 07:59 | 49.10824 | 3.03621 | 34993 ft | 439 kts | 198° |
| 2026-05-06 07:59 | 49.07917 | 3.02157 | 35162 ft | 439 kts | 198° |
| 2026-05-06 07:59 | 49.05021 | 3.00699 | 35388 ft | 438 kts | 198° |
| 2026-05-06 07:59 | 49.02128 | 2.99249 | 35554 ft | 438 kts | 198° |
| 2026-05-06 08:00 | 48.99229 | 2.97797 | 35702 ft | 438 kts | 198° |
| 2026-05-06 08:00 | 48.96336 | 2.96349 | 35881 ft | 438 kts | 198° |
| 2026-05-06 08:00 | 48.93444 | 2.94899 | 36049 ft | 438 kts | 198° |
| 2026-05-06 08:00 | 48.90588 | 2.93468 | 36191 ft | 438 kts | 198° |
| 2026-05-06 08:01 | 48.87693 | 2.92021 | 36344 ft | 438 kts | 198° |
| 2026-05-06 08:01 | 48.84801 | 2.90577 | 36503 ft | 438 kts | 198° |
| 2026-05-06 08:01 | 48.81906 | 2.89130 | 36639 ft | 438 kts | 198° |
| 2026-05-06 08:01 | 48.79010 | 2.87685 | 36799 ft | 437 kts | 198° |
| 2026-05-06 08:02 | 48.73225 | 2.84811 | 36871 ft | 438 kts | 198° |
| 2026-05-06 08:02 | 48.67432 | 2.81943 | 36868 ft | 438 kts | 198° |
| 2026-05-06 08:03 | 48.61643 | 2.79086 | 36892 ft | 438 kts | 198° |
| 2026-05-06 08:03 | 48.55854 | 2.76228 | 36893 ft | 438 kts | 198° |
| 2026-05-06 08:04 | 48.50060 | 2.73370 | 36869 ft | 438 kts | 198° |
| 2026-05-06 08:04 | 48.44264 | 2.70530 | 36871 ft | 438 kts | 198° |
| 2026-05-06 08:05 | 48.38463 | 2.67697 | 36870 ft | 438 kts | 198° |
| 2026-05-06 08:05 | 48.32646 | 2.64971 | 36864 ft | 438 kts | 192° |
| 2026-05-06 08:06 | 48.26596 | 2.64522 | 36857 ft | 437 kts | 173° |
| 2026-05-06 08:06 | 48.20598 | 2.66037 | 36851 ft | 437 kts | 178° |
| 2026-05-06 08:07 | 48.14578 | 2.65095 | 36852 ft | 437 kts | 190° |
| 2026-05-06 08:07 | 48.08588 | 2.63535 | 36847 ft | 437 kts | 189° |
| 2026-05-06 08:08 | 48.02578 | 2.62046 | 36851 ft | 438 kts | 189° |
| 2026-05-06 08:08 | 47.96561 | 2.60572 | 36855 ft | 438 kts | 189° |
| 2026-05-06 08:09 | 47.90544 | 2.59073 | 36859 ft | 439 kts | 189° |
| 2026-05-06 08:09 | 47.84515 | 2.57563 | 36859 ft | 439 kts | 189° |
| 2026-05-06 08:10 | 47.78486 | 2.56056 | 36849 ft | 440 kts | 189° |
| 2026-05-06 08:10 | 47.72448 | 2.54565 | 36850 ft | 440 kts | 189° |
| 2026-05-06 08:11 | 47.66447 | 2.53087 | 36857 ft | 440 kts | 189° |
| 2026-05-06 08:11 | 47.60405 | 2.51598 | 36858 ft | 440 kts | 189° |
| 2026-05-06 08:12 | 47.54368 | 2.50112 | 36862 ft | 440 kts | 189° |
| 2026-05-06 08:12 | 47.48321 | 2.48619 | 36855 ft | 441 kts | 189° |
| 2026-05-06 08:13 | 47.42265 | 2.47130 | 36855 ft | 442 kts | 189° |
| 2026-05-06 08:13 | 47.36200 | 2.45659 | 36858 ft | 442 kts | 189° |
| 2026-05-06 08:14 | 47.30131 | 2.44188 | 36869 ft | 441 kts | 190° |
| 2026-05-06 08:14 | 47.24073 | 2.42711 | 36873 ft | 441 kts | 190° |
| 2026-05-06 08:15 | 47.18023 | 2.41234 | 36879 ft | 441 kts | 190° |
| 2026-05-06 08:15 | 47.11971 | 2.39763 | 36879 ft | 441 kts | 190° |
| 2026-05-06 08:16 | 47.05924 | 2.38296 | 36885 ft | 440 kts | 190° |
| 2026-05-06 08:16 | 46.99879 | 2.36848 | 36882 ft | 440 kts | 190° |
| 2026-05-06 08:17 | 46.93849 | 2.35406 | 36881 ft | 439 kts | 190° |
| 2026-05-06 08:17 | 46.87821 | 2.33948 | 36880 ft | 439 kts | 190° |
| 2026-05-06 08:18 | 46.81801 | 2.32505 | 36881 ft | 438 kts | 190° |
| 2026-05-06 08:18 | 46.75782 | 2.31079 | 36876 ft | 439 kts | 190° |
| 2026-05-06 08:19 | 46.69758 | 2.29643 | 36887 ft | 439 kts | 190° |
| 2026-05-06 08:19 | 46.63726 | 2.28205 | 36886 ft | 439 kts | 190° |
| 2026-05-06 08:20 | 46.57701 | 2.26774 | 36891 ft | 439 kts | 190° |
| 2026-05-06 08:20 | 46.51674 | 2.25352 | 36891 ft | 439 kts | 190° |
| 2026-05-06 08:21 | 46.45649 | 2.23925 | 36896 ft | 438 kts | 190° |
| 2026-05-06 08:21 | 46.39631 | 2.22497 | 36895 ft | 438 kts | 190° |
| 2026-05-06 08:22 | 46.33652 | 2.21095 | 36891 ft | 438 kts | 190° |
| 2026-05-06 08:22 | 46.27630 | 2.19682 | 36894 ft | 438 kts | 190° |
| 2026-05-06 08:23 | 46.21566 | 2.18271 | 36897 ft | 439 kts | 190° |
| 2026-05-06 08:23 | 46.15573 | 2.16880 | 36902 ft | 439 kts | 190° |
| 2026-05-06 08:24 | 46.09541 | 2.15471 | 36896 ft | 439 kts | 190° |
| 2026-05-06 08:24 | 46.03509 | 2.14066 | 36903 ft | 439 kts | 190° |
| 2026-05-06 08:25 | 45.97476 | 2.12662 | 36904 ft | 439 kts | 190° |
| 2026-05-06 08:25 | 45.91436 | 2.11258 | 36898 ft | 439 kts | 190° |
| 2026-05-06 08:26 | 45.85396 | 2.09863 | 36905 ft | 439 kts | 191° |
| 2026-05-06 08:26 | 45.79365 | 2.08473 | 36909 ft | 439 kts | 191° |
| 2026-05-06 08:27 | 45.73330 | 2.07086 | 36907 ft | 439 kts | 191° |
| 2026-05-06 08:27 | 45.67291 | 2.05705 | 36916 ft | 440 kts | 191° |
| 2026-05-06 08:28 | 45.61242 | 2.04329 | 36914 ft | 440 kts | 191° |
| 2026-05-06 08:28 | 45.55199 | 2.02941 | 36919 ft | 440 kts | 191° |
| 2026-05-06 08:29 | 45.49160 | 2.01566 | 36920 ft | 439 kts | 191° |
| 2026-05-06 08:29 | 45.43124 | 2.00184 | 36925 ft | 439 kts | 191° |
| 2026-05-06 08:30 | 45.37093 | 1.98813 | 36929 ft | 439 kts | 191° |
| 2026-05-06 08:30 | 45.31057 | 1.97451 | 36927 ft | 439 kts | 191° |
| 2026-05-06 08:31 | 45.25015 | 1.96085 | 36930 ft | 439 kts | 191° |
| 2026-05-06 08:31 | 45.18975 | 1.94725 | 36929 ft | 439 kts | 191° |
| 2026-05-06 08:32 | 45.12941 | 1.93362 | 36921 ft | 439 kts | 191° |
| 2026-05-06 08:32 | 45.06904 | 1.92007 | 36923 ft | 439 kts | 191° |
| 2026-05-06 08:33 | 45.00869 | 1.90663 | 36935 ft | 439 kts | 191° |
| 2026-05-06 08:33 | 44.94823 | 1.89312 | 36929 ft | 440 kts | 191° |
| 2026-05-06 08:34 | 44.85742 | 1.87284 | 36932 ft | 441 kts | 191° |
| 2026-05-06 08:35 | 44.79687 | 1.85935 | 36936 ft | 441 kts | 191° |
| 2026-05-06 08:35 | 44.73630 | 1.84589 | 36940 ft | 440 kts | 191° |
| 2026-05-06 08:36 | 44.67577 | 1.83238 | 36942 ft | 440 kts | 191° |
| 2026-05-06 08:36 | 44.61525 | 1.81901 | 36942 ft | 440 kts | 191° |
| 2026-05-06 08:37 | 44.55471 | 1.80570 | 36935 ft | 440 kts | 191° |
| 2026-05-06 08:37 | 44.49416 | 1.79241 | 36942 ft | 440 kts | 191° |
| 2026-05-06 08:38 | 44.43366 | 1.77920 | 36952 ft | 440 kts | 191° |
| 2026-05-06 08:38 | 44.37318 | 1.76594 | 36949 ft | 440 kts | 192° |
| 2026-05-06 08:39 | 44.31274 | 1.75290 | 36960 ft | 440 kts | 189° |
| 2026-05-06 08:39 | 44.25139 | 1.75491 | 36968 ft | 444 kts | 177° |
| 2026-05-06 08:40 | 44.18995 | 1.76350 | 36966 ft | 444 kts | 178° |
| 2026-05-06 08:40 | 44.12852 | 1.77205 | 36965 ft | 443 kts | 178° |
| 2026-05-06 08:41 | 44.06752 | 1.78047 | 36968 ft | 443 kts | 178° |
| 2026-05-06 08:41 | 44.00575 | 1.78892 | 36958 ft | 443 kts | 178° |
| 2026-05-06 08:42 | 43.94445 | 1.79731 | 36974 ft | 442 kts | 178° |
| 2026-05-06 08:42 | 43.88359 | 1.80570 | 36977 ft | 442 kts | 178° |
| 2026-05-06 08:43 | 43.82236 | 1.81410 | 36978 ft | 442 kts | 178° |
| 2026-05-06 08:43 | 43.76102 | 1.82251 | 36212 ft | 448 kts | 179° |
| 2026-05-06 08:43 | 43.72988 | 1.82672 | 35344 ft | 451 kts | 179° |
| 2026-05-06 08:44 | 43.70879 | 1.82958 | 34871 ft | 449 kts | 179° |
| 2026-05-06 08:44 | 43.67784 | 1.83383 | 34294 ft | 446 kts | 179° |
| 2026-05-06 08:44 | 43.64710 | 1.83803 | 33725 ft | 441 kts | 180° |
| 2026-05-06 08:44 | 43.61669 | 1.84218 | 33117 ft | 437 kts | 180° |
| 2026-05-06 08:45 | 43.58664 | 1.84628 | 32614 ft | 431 kts | 181° |
| 2026-05-06 08:45 | 43.55703 | 1.85033 | 32120 ft | 425 kts | 181° |
| 2026-05-06 08:45 | 43.52780 | 1.85429 | 31607 ft | 420 kts | 181° |
| 2026-05-06 08:45 | 43.49889 | 1.85819 | 31119 ft | 415 kts | 181° |
| 2026-05-06 08:46 | 43.47027 | 1.86205 | 30615 ft | 411 kts | 181° |
| 2026-05-06 08:46 | 43.44195 | 1.86587 | 30138 ft | 407 kts | 181° |
| 2026-05-06 08:46 | 43.41392 | 1.86966 | 29539 ft | 403 kts | 181° |
| 2026-05-06 08:46 | 43.38616 | 1.87342 | 29017 ft | 398 kts | 182° |
| 2026-05-06 08:47 | 43.35870 | 1.87715 | 28454 ft | 395 kts | 181° |
| 2026-05-06 08:47 | 43.33147 | 1.88082 | 27897 ft | 393 kts | 181° |
| 2026-05-06 08:47 | 43.30434 | 1.88444 | 27323 ft | 390 kts | 181° |
| 2026-05-06 08:47 | 43.27738 | 1.88798 | 27002 ft | 390 kts | 181° |
| 2026-05-06 08:48 | 43.25032 | 1.89153 | 26973 ft | 391 kts | 181° |
| 2026-05-06 08:48 | 43.22318 | 1.89515 | 26983 ft | 392 kts | 181° |
| 2026-05-06 08:48 | 43.19600 | 1.89879 | 26972 ft | 392 kts | 181° |
| 2026-05-06 08:48 | 43.16886 | 1.90244 | 26978 ft | 391 kts | 181° |
| 2026-05-06 08:49 | 43.14179 | 1.90610 | 26976 ft | 391 kts | 181° |
| 2026-05-06 08:49 | 43.11472 | 1.90971 | 26979 ft | 391 kts | 181° |
| 2026-05-06 08:49 | 43.08774 | 1.91330 | 26976 ft | 389 kts | 181° |
| 2026-05-06 08:49 | 43.06086 | 1.91690 | 26978 ft | 388 kts | 181° |
| 2026-05-06 08:50 | 43.03400 | 1.92048 | 26974 ft | 388 kts | 181° |
| 2026-05-06 08:50 | 43.00717 | 1.92406 | 26974 ft | 388 kts | 181° |
| 2026-05-06 08:50 | 42.98037 | 1.92763 | 26978 ft | 386 kts | 181° |
| 2026-05-06 08:50 | 42.95402 | 1.93112 | 26983 ft | 385 kts | 182° |
| 2026-05-06 08:51 | 42.92704 | 1.93539 | 26976 ft | 387 kts | 178° |
| 2026-05-06 08:51 | 42.90076 | 1.94137 | 26978 ft | 388 kts | 177° |
| 2026-05-06 08:51 | 42.87415 | 1.94812 | 26976 ft | 389 kts | 176° |
| 2026-05-06 08:51 | 42.84754 | 1.95524 | 26982 ft | 390 kts | 176° |
| 2026-05-06 08:52 | 42.82094 | 1.96245 | 26974 ft | 390 kts | 176° |
| 2026-05-06 08:52 | 42.79431 | 1.96961 | 26976 ft | 390 kts | 176° |
| 2026-05-06 08:52 | 42.76773 | 1.97663 | 26871 ft | 388 kts | 176° |
| 2026-05-06 08:52 | 42.74131 | 1.98351 | 26378 ft | 385 kts | 176° |
| 2026-05-06 08:53 | 42.71510 | 1.99027 | 25870 ft | 382 kts | 176° |
| 2026-05-06 08:53 | 42.68904 | 1.99693 | 25367 ft | 380 kts | 176° |
| 2026-05-06 08:53 | 42.66307 | 2.00354 | 24886 ft | 379 kts | 176° |
| 2026-05-06 08:53 | 42.63723 | 2.01012 | 24410 ft | 377 kts | 175° |
| 2026-05-06 08:54 | 42.61151 | 2.01668 | 23935 ft | 375 kts | 175° |
| 2026-05-06 08:54 | 42.58590 | 2.02319 | 23408 ft | 373 kts | 176° |
| 2026-05-06 08:54 | 42.56049 | 2.02968 | 22921 ft | 370 kts | 176° |
| 2026-05-06 08:54 | 42.53527 | 2.03615 | 22423 ft | 368 kts | 176° |
| 2026-05-06 08:55 | 42.51021 | 2.04259 | 21883 ft | 366 kts | 176° |
| 2026-05-06 08:55 | 42.48525 | 2.04897 | 21409 ft | 363 kts | 175° |
| 2026-05-06 08:55 | 42.46047 | 2.05527 | 20930 ft | 361 kts | 175° |
| 2026-05-06 08:55 | 42.43580 | 2.06150 | 20454 ft | 360 kts | 175° |
| 2026-05-06 08:56 | 42.41120 | 2.06772 | 20016 ft | 359 kts | 174° |
| 2026-05-06 08:56 | 42.38676 | 2.07391 | 19560 ft | 357 kts | 174° |
| 2026-05-06 08:56 | 42.36237 | 2.08009 | 19124 ft | 355 kts | 174° |
| 2026-05-06 08:56 | 42.33820 | 2.08623 | 18723 ft | 353 kts | 174° |
| 2026-05-06 08:57 | 42.31406 | 2.09234 | 18301 ft | 352 kts | 174° |
| 2026-05-06 08:57 | 42.28999 | 2.09840 | 17797 ft | 351 kts | 173° |
| 2026-05-06 08:57 | 42.26604 | 2.10443 | 17353 ft | 349 kts | 173° |
| 2026-05-06 08:57 | 42.24223 | 2.11046 | 16909 ft | 347 kts | 173° |
| 2026-05-06 08:58 | 42.21855 | 2.11644 | 16479 ft | 345 kts | 173° |
| 2026-05-06 08:58 | 42.19504 | 2.12236 | 16089 ft | 343 kts | 173° |
| 2026-05-06 08:58 | 42.17167 | 2.12823 | 15666 ft | 341 kts | 173° |
| 2026-05-06 08:58 | 42.14843 | 2.13410 | 15267 ft | 339 kts | 173° |
| 2026-05-06 08:59 | 42.12531 | 2.13999 | 14868 ft | 337 kts | 173° |
| 2026-05-06 08:59 | 42.10230 | 2.14581 | 14483 ft | 335 kts | 173° |
| 2026-05-06 08:59 | 42.07942 | 2.15155 | 14085 ft | 334 kts | 173° |
| 2026-05-06 08:59 | 42.05694 | 2.15719 | 13671 ft | 333 kts | 173° |
| 2026-05-06 09:00 | 42.03397 | 2.16295 | 13250 ft | 331 kts | 173° |
| 2026-05-06 09:00 | 42.01174 | 2.16850 | 12852 ft | 328 kts | 173° |
| 2026-05-06 09:00 | 41.98908 | 2.17413 | 12440 ft | 326 kts | 173° |
| 2026-05-06 09:00 | 41.96684 | 2.17965 | 12021 ft | 324 kts | 173° |
| 2026-05-06 09:01 | 41.94507 | 2.18507 | 11591 ft | 321 kts | 173° |
| 2026-05-06 09:01 | 41.92287 | 2.19062 | 11169 ft | 319 kts | 173° |
| 2026-05-06 09:01 | 41.90107 | 2.19607 | 10774 ft | 317 kts | 173° |
| 2026-05-06 09:01 | 41.87950 | 2.20150 | 10383 ft | 315 kts | 173° |
| 2026-05-06 09:02 | 41.85833 | 2.20683 | 9982 ft | 313 kts | 173° |
| 2026-05-06 09:02 | 41.83731 | 2.21214 | 9825 ft | 302 kts | 173° |
| 2026-05-06 09:02 | 41.81710 | 2.21725 | 9668 ft | 291 kts | 173° |
| 2026-05-06 09:02 | 41.79740 | 2.22220 | 9347 ft | 286 kts | 173° |
| 2026-05-06 09:03 | 41.77790 | 2.22706 | 8965 ft | 284 kts | 173° |
| 2026-05-06 09:03 | 41.75854 | 2.23185 | 8600 ft | 282 kts | 173° |
| 2026-05-06 09:03 | 41.73929 | 2.23661 | 8195 ft | 281 kts | 174° |
| 2026-05-06 09:03 | 41.72009 | 2.24133 | 7781 ft | 280 kts | 173° |
| 2026-05-06 09:04 | 41.70098 | 2.24602 | 7414 ft | 278 kts | 173° |
| 2026-05-06 09:04 | 41.68201 | 2.25069 | 7020 ft | 277 kts | 173° |
| 2026-05-06 09:04 | 41.66313 | 2.25536 | 6660 ft | 275 kts | 172° |
| 2026-05-06 09:04 | 41.64441 | 2.26001 | 6276 ft | 273 kts | 172° |
| 2026-05-06 09:05 | 41.62574 | 2.26467 | 5863 ft | 273 kts | 172° |
| 2026-05-06 09:05 | 41.60713 | 2.26931 | 5431 ft | 272 kts | 172° |
| 2026-05-06 09:05 | 41.58850 | 2.27392 | 4989 ft | 272 kts | 172° |
| 2026-05-06 09:05 | 41.56984 | 2.27852 | 4550 ft | 273 kts | 172° |
| 2026-05-06 09:06 | 41.55124 | 2.28310 | 4151 ft | 271 kts | 172° |
| 2026-05-06 09:06 | 41.53271 | 2.28764 | 3753 ft | 270 kts | 172° |
| 2026-05-06 09:06 | 41.51422 | 2.29221 | 3314 ft | 270 kts | 171° |
| 2026-05-06 09:06 | 41.49594 | 2.29672 | 3022 ft | 264 kts | 171° |
| 2026-05-06 09:07 | 41.47827 | 2.30109 | 2901 ft | 252 kts | 171° |
| 2026-05-06 09:07 | 41.46140 | 2.30528 | 2780 ft | 240 kts | 171° |
| 2026-05-06 09:07 | 41.44536 | 2.30924 | 2644 ft | 229 kts | 172° |
| 2026-05-06 09:07 | 41.42997 | 2.31303 | 2427 ft | 222 kts | 172° |
| 2026-05-06 09:08 | 41.41492 | 2.31671 | 2307 ft | 220 kts | 172° |
| 2026-05-06 09:08 | 41.39987 | 2.31728 | 2307 ft | 217 kts | 191° |
| 2026-05-06 09:08 | 41.38573 | 2.31101 | 2306 ft | 210 kts | 211° |
| 2026-05-06 09:08 | 41.37470 | 2.29950 | 2302 ft | 197 kts | 229° |
| 2026-05-06 09:09 | 41.36729 | 2.28451 | 2305 ft | 193 kts | 246° |
| 2026-05-06 09:09 | 41.36175 | 2.26819 | 2308 ft | 193 kts | 247° |
| 2026-05-06 09:09 | 41.35623 | 2.25193 | 2306 ft | 192 kts | 247° |
| 2026-05-06 09:09 | 41.35073 | 2.23575 | 2182 ft | 190 kts | 247° |
| 2026-05-06 09:10 | 41.34539 | 2.22007 | 1931 ft | 181 kts | 246° |
| 2026-05-06 09:10 | 41.34045 | 2.20557 | 1735 ft | 162 kts | 247° |
| 2026-05-06 09:10 | 41.33601 | 2.19256 | 1499 ft | 147 kts | 247° |
| 2026-05-06 09:10 | 41.33191 | 2.18045 | 1292 ft | 142 kts | 246° |
| 2026-05-06 09:11 | 41.32788 | 2.16869 | 1101 ft | 138 kts | 247° |
| 2026-05-06 09:11 | 41.32389 | 2.15697 | 931 ft | 140 kts | 246° |
| 2026-05-06 09:11 | 41.31989 | 2.14511 | 762 ft | 141 kts | 246° |
| 2026-05-06 09:11 | 41.31590 | 2.13318 | 595 ft | 142 kts | 248° |
| 2026-05-06 09:12 | 41.31176 | 2.12124 | 389 ft | 142 kts | 247° |
| 2026-05-06 09:12 | 41.30762 | 2.10933 | 204 ft | 142 kts | 248° |
| 2026-05-06 09:12 | 41.30354 | 2.09749 | 20 ft | 133 kts | 247° |
| 2026-05-06 09:12 | 41.30072 | 2.08911 | 19 ft | 56 kts | 245° |
| 2026-05-06 09:13 | 41.30007 | 2.08734 | 22 ft | 10 kts | 235° |
| 2026-05-06 09:13 | 41.29922 | 2.08621 | 23 ft | 23 kts | 221° |
| 2026-05-06 09:13 | 41.29822 | 2.08525 | 18 ft | 9 kts | 214° |
| 2026-05-06 09:13 | 41.29773 | 2.08484 | 17 ft | 8 kts | 207° |
| 2026-05-06 09:14 | 41.29731 | 2.08456 | 19 ft | 6 kts | 208° |
| 2026-05-06 09:14 | 41.29702 | 2.08377 | 17 ft | 12 kts | 244° |
| 2026-05-06 09:14 | 41.29664 | 2.08269 | 17 ft | 14 kts | 245° |
| 2026-05-06 09:14 | 41.29583 | 2.08248 | 17 ft | 15 kts | 152° |
| 2026-05-06 09:15 | 41.29490 | 2.08306 | 19 ft | 15 kts | 153° |
| 2026-05-06 09:15 | 41.29396 | 2.08361 | 20 ft | 15 kts | 156° |
| 2026-05-06 09:15 | 41.29301 | 2.08416 | 22 ft | 15 kts | 156° |
| 2026-05-06 09:15 | 41.29205 | 2.08449 | 20 ft | 15 kts | 192° |
| 2026-05-06 09:16 | 41.29101 | 2.08401 | 19 ft | 17 kts | 199° |
| 2026-05-06 09:16 | 41.29033 | 2.08317 | 19 ft | 14 kts | 246° |
| 2026-05-06 09:16 | 41.28993 | 2.08197 | 20 ft | 15 kts | 246° |
| 2026-05-06 09:16 | 41.28951 | 2.08072 | 19 ft | 12 kts | 247° |
| 2026-05-06 09:17 | 41.28995 | 2.08012 | 21 ft | 9 kts | 339° |
| 2026-05-06 09:17 | 41.29020 | 2.07997 | 21 ft | 0 kts | 334° |